Time;durP1;ratioP1;P1;durP2;ratioP2;P2;SDS_P1;SDS_P2;PMS_P1;PMS_P2;Temp;Humidity;BMP_temperature;BMP_pressure;BME280_temperature;BME280_humidity;BME280_pressure;Samples;Min_cycle;Max_cycle;Signal;HPM_P1;HPM_P2
2023/12/14 00:02:37;;;;;;;21.58;13.60;;;23.50;45.60;;;;;;6152951;28;83174;-60
2023/12/14 00:05:37;;;;;;;24.58;13.68;;;23.40;45.60;;;;;;6149456;28;83514;-61
2023/12/14 00:08:38;;;;;;;22.50;13.57;;;23.50;45.70;;;;;;6172325;28;83327;-61
2023/12/14 00:11:39;;;;;;;21.77;13.60;;;23.50;45.70;;;;;;6173887;28;84285;-59
2023/12/14 00:14:39;;;;;;;20.73;12.40;;;23.50;45.80;;;;;;6171535;28;85286;-59
2023/12/14 00:17:39;;;;;;;21.38;13.82;;;23.50;45.80;;;;;;6169756;28;82873;-60
2023/12/14 00:20:40;;;;;;;21.35;13.82;;;23.50;45.70;;;;;;6166680;28;83729;-59
2023/12/14 00:23:40;;;;;;;24.13;14.70;;;23.50;45.60;;;;;;6167590;28;83299;-60
2023/12/14 00:26:41;;;;;;;20.65;12.18;;;23.50;45.40;;;;;;6168765;28;83407;-59
2023/12/14 00:29:41;;;;;;;21.73;13.45;;;23.50;45.50;;;;;;6167538;28;83735;-70
2023/12/14 00:32:42;;;;;;;20.42;12.95;;;23.50;45.50;;;;;;6156614;28;83475;-71
2023/12/14 00:35:42;;;;;;;21.20;13.00;;;23.50;46.10;;;;;;6170786;28;89771;-73
2023/12/14 00:38:43;;;;;;;20.02;12.82;;;23.50;45.40;;;;;;6154172;28;83797;-71
2023/12/14 00:41:43;;;;;;;22.00;12.73;;;23.50;45.50;;;;;;6148780;28;84576;-72
2023/12/14 00:44:44;;;;;;;23.23;14.02;;;23.50;45.40;;;;;;6153588;28;84049;-77
2023/12/14 00:47:44;;;;;;;21.58;13.48;;;23.50;45.30;;;;;;6154163;28;84424;-74
2023/12/14 00:50:45;;;;;;;18.60;13.98;;;23.40;45.30;;;;;;6148319;28;83306;-73
2023/12/14 00:53:45;;;;;;;20.20;13.15;;;23.50;45.40;;;;;;6162823;28;83428;-76
2023/12/14 00:56:46;;;;;;;19.65;12.63;;;23.50;45.30;;;;;;6172950;28;84083;-77
2023/12/14 00:59:46;;;;;;;20.33;12.77;;;23.50;45.30;;;;;;6172194;28;87457;-78
2023/12/14 01:02:47;;;;;;;23.77;14.52;;;23.50;45.30;;;;;;6166172;28;83813;-77
2023/12/14 01:05:47;;;;;;;19.13;12.80;;;23.50;45.30;;;;;;6161372;28;83920;-71
2023/12/14 01:08:48;;;;;;;21.98;13.35;;;23.40;46.00;;;;;;6150810;28;83085;-65
2023/12/14 01:11:48;;;;;;;20.48;13.20;;;23.50;45.30;;;;;;6152083;28;82988;-64
2023/12/14 01:14:49;;;;;;;22.17;12.82;;;23.50;45.40;;;;;;6159818;28;83548;-63
2023/12/14 01:17:49;;;;;;;22.05;13.45;;;23.50;45.40;;;;;;6153095;28;83214;-65
2023/12/14 01:20:50;;;;;;;22.13;13.55;;;23.40;45.30;;;;;;6152128;28;83122;-65
2023/12/14 01:23:51;;;;;;;21.05;12.70;;;23.40;45.40;;;;;;6165545;28;83714;-65
2023/12/14 01:26:52;;;;;;;21.60;13.60;;;23.50;45.40;;;;;;6170618;28;83259;-71
2023/12/14 01:29:52;;;;;;;20.40;12.98;;;23.40;45.30;;;;;;6175035;28;83115;-71
2023/12/14 01:32:53;;;;;;;21.05;13.07;;;23.40;45.30;;;;;;6163282;28;83216;-77
2023/12/14 01:35:53;;;;;;;20.20;12.68;;;23.40;45.30;;;;;;6173383;28;82968;-74
2023/12/14 01:38:54;;;;;;;21.75;13.63;;;23.40;45.30;;;;;;6164489;28;83417;-71
2023/12/14 01:41:54;;;;;;;19.75;13.25;;;23.40;45.70;;;;;;6174515;28;83183;-75
2023/12/14 01:44:55;;;;;;;20.42;12.57;;;23.40;45.80;;;;;;6176317;28;83418;-74
2023/12/14 01:47:55;;;;;;;21.60;12.68;;;23.40;45.90;;;;;;6175801;28;83526;-74
2023/12/14 01:50:56;;;;;;;17.30;11.38;;;23.40;45.90;;;;;;6158350;28;83050;-74
2023/12/14 01:53:56;;;;;;;19.13;12.18;;;23.40;45.90;;;;;;6152446;28;83403;-74
2023/12/14 01:56:57;;;;;;;19.90;12.27;;;23.40;45.80;;;;;;6154917;28;85503;-74
2023/12/14 01:59:57;;;;;;;20.83;13.10;;;23.40;45.70;;;;;;6164514;28;83237;-75
2023/12/14 02:02:57;;;;;;;19.15;12.02;;;23.40;45.50;;;;;;6165565;28;83103;-61
2023/12/14 02:05:58;;;;;;;21.98;12.50;;;23.40;45.70;;;;;;6170215;28;83272;-59
2023/12/14 02:08:58;;;;;;;20.33;11.93;;;23.40;45.70;;;;;;6158149;28;83433;-60
2023/12/14 02:11:59;;;;;;;19.45;11.38;;;23.40;45.70;;;;;;6156452;28;84016;-60
2023/12/14 02:14:59;;;;;;;19.77;12.60;;;23.40;45.60;;;;;;6164883;28;87088;-59
2023/12/14 02:18:00;;;;;;;19.48;11.73;;;23.40;45.60;;;;;;6161009;28;83079;-59
2023/12/14 02:21:00;;;;;;;21.15;12.98;;;23.40;45.60;;;;;;6158540;28;85065;-59
2023/12/14 02:24:01;;;;;;;18.55;11.55;;;23.40;45.60;;;;;;6148290;28;83132;-60
2023/12/14 02:27:02;;;;;;;17.52;11.00;;;23.40;45.60;;;;;;6172784;28;84829;-62
2023/12/14 02:30:03;;;;;;;15.90;11.32;;;23.40;45.60;;;;;;6158491;28;83708;-61
2023/12/14 02:33:03;;;;;;;16.33;10.13;;;23.40;45.60;;;;;;6156011;28;83242;-60
2023/12/14 02:36:04;;;;;;;16.48;11.32;;;23.30;45.50;;;;;;6159237;28;84065;-59
2023/12/14 02:39:04;;;;;;;16.77;11.20;;;23.30;45.50;;;;;;6156933;28;84908;-59
2023/12/14 02:42:04;;;;;;;17.35;10.35;;;23.30;45.70;;;;;;6153869;28;83249;-61
2023/12/14 02:45:05;;;;;;;15.35;10.32;;;23.30;45.60;;;;;;6150369;28;83119;-60
2023/12/14 02:48:05;;;;;;;15.88;10.27;;;23.30;45.70;;;;;;6149712;28;83582;-60
2023/12/14 02:51:06;;;;;;;15.48;10.63;;;23.30;45.70;;;;;;6150368;28;83597;-60
2023/12/14 02:54:06;;;;;;;15.68;10.55;;;23.30;45.70;;;;;;6153494;28;83175;-60
2023/12/14 02:57:07;;;;;;;16.17;10.68;;;23.30;45.90;;;;;;6158818;28;83165;-60
2023/12/14 03:00:07;;;;;;;16.73;10.98;;;23.30;45.90;;;;;;6149951;28;87915;-60
2023/12/14 03:03:08;;;;;;;17.67;11.65;;;23.40;46.20;;;;;;6152309;28;85292;-60
2023/12/14 03:06:08;;;;;;;17.25;10.65;;;23.30;46.20;;;;;;6149873;28;83174;-60
2023/12/14 03:09:09;;;;;;;16.38;9.88;;;23.30;46.40;;;;;;6150673;28;83395;-60
2023/12/14 03:12:09;;;;;;;14.75;9.73;;;23.30;46.40;;;;;;6158797;28;82559;-61
2023/12/14 03:15:10;;;;;;;16.83;10.50;;;23.30;46.80;;;;;;6154442;28;81252;-59
2023/12/14 03:18:10;;;;;;;17.52;11.52;;;23.30;46.30;;;;;;6150401;28;83527;-60
2023/12/14 03:21:11;;;;;;;18.83;10.88;;;23.30;46.30;;;;;;6160616;28;83633;-59
2023/12/14 03:24:11;;;;;;;19.00;11.10;;;23.30;46.20;;;;;;6172600;28;83344;-59
2023/12/14 03:27:12;;;;;;;15.65;10.35;;;23.30;46.30;;;;;;6152596;28;84989;-58
2023/12/14 03:30:12;;;;;;;20.25;11.50;;;23.30;46.40;;;;;;6148355;28;83759;-59
2023/12/14 03:33:13;;;;;;;17.60;10.73;;;23.30;46.40;;;;;;6153140;28;83612;-59
2023/12/14 03:36:13;;;;;;;17.23;11.25;;;23.30;46.70;;;;;;6160938;28;83104;-59
2023/12/14 03:39:16;;;;;;;15.25;9.82;;;23.30;47.00;;;;;;6172841;28;85392;-61
2023/12/14 03:42:16;;;;;;;14.95;10.02;;;23.30;46.50;;;;;;6175475;28;82932;-59
2023/12/14 03:45:17;;;;;;;17.27;10.05;;;23.30;46.40;;;;;;6152327;28;83132;-60
2023/12/14 03:48:17;;;;;;;15.45;10.27;;;23.30;46.20;;;;;;6149801;28;83093;-60
2023/12/14 03:51:18;;;;;;;17.70;10.77;;;23.30;46.40;;;;;;6149986;28;83576;-72
2023/12/14 03:54:18;;;;;;;14.68;9.77;;;23.30;46.10;;;;;;6170578;28;84915;-67
2023/12/14 03:57:19;;;;;;;15.50;9.77;;;23.40;46.40;;;;;;6172152;28;84506;-66
2023/12/14 04:00:20;;;;;;;14.90;9.40;;;23.30;46.60;;;;;;6159023;28;84877;-69
2023/12/14 04:03:20;;;;;;;14.50;9.48;;;23.40;46.50;;;;;;6152603;28;80732;-68
2023/12/14 04:06:20;;;;;;;12.13;8.50;;;23.40;46.70;;;;;;6161054;28;80821;-66
2023/12/14 04:09:21;;;;;;;14.48;9.27;;;23.40;47.50;;;;;;6174202;28;80882;-68
2023/12/14 04:12:21;;;;;;;14.07;8.70;;;23.40;46.90;;;;;;6168055;28;80501;-68
2023/12/14 04:15:22;;;;;;;14.77;9.35;;;23.40;46.90;;;;;;6152943;28;80987;-63
2023/12/14 04:18:22;;;;;;;16.60;9.35;;;23.40;47.00;;;;;;6153137;28;80863;-66
2023/12/14 04:21:23;;;;;;;12.98;8.75;;;23.40;47.20;;;;;;6171752;28;81139;-68
2023/12/14 04:24:23;;;;;;;12.85;8.90;;;23.30;46.90;;;;;;6171754;28;81359;-68
2023/12/14 04:27:28;;;;;;;13.50;8.50;;;23.40;46.90;;;;;;6170631;28;81619;-69
2023/12/14 04:30:28;;;;;;;15.00;9.18;;;23.50;47.50;;;;;;6159936;28;81084;-60
2023/12/14 04:33:29;;;;;;;14.65;8.75;;;23.50;46.90;;;;;;6160003;28;81357;-60
2023/12/14 04:36:29;;;;;;;13.23;8.70;;;23.50;46.60;;;;;;6152543;28;81287;-60
2023/12/14 04:39:30;;;;;;;11.70;7.57;;;23.40;46.60;;;;;;6160769;28;81039;-59
2023/12/14 04:42:30;;;;;;;15.77;8.25;;;23.50;46.70;;;;;;6159476;28;80852;-60
2023/12/14 04:45:31;;;;;;;17.30;8.20;;;23.50;47.00;;;;;;6161221;28;81211;-59
2023/12/14 04:48:31;;;;;;;10.40;7.22;;;23.60;47.00;;;;;;6161851;28;82136;-58
2023/12/14 04:51:32;;;;;;;12.63;7.47;;;23.60;47.10;;;;;;6161091;28;80876;-57
2023/12/14 04:54:32;;;;;;;12.55;7.10;;;23.60;47.00;;;;;;6167606;28;82396;-56
2023/12/14 04:57:33;;;;;;;13.18;7.43;;;23.60;47.00;;;;;;6161579;28;83239;-57
2023/12/14 05:00:33;;;;;;;16.38;7.45;;;23.70;47.30;;;;;;6160438;28;83484;-56
2023/12/14 05:03:34;;;;;;;12.88;8.50;;;23.70;47.30;;;;;;6158189;28;80749;-57
2023/12/14 05:06:35;;;;;;;10.95;6.35;;;23.70;47.30;;;;;;6168753;28;80897;-59
2023/12/14 05:09:35;;;;;;;10.90;6.47;;;23.70;48.00;;;;;;6161854;28;80412;-59
2023/12/14 05:12:36;;;;;;;10.90;7.10;;;23.70;48.00;;;;;;6163621;28;80342;-59
2023/12/14 05:15:36;;;;;;;13.20;7.68;;;23.70;48.40;;;;;;6163213;28;81124;-58
2023/12/14 05:18:36;;;;;;;11.82;7.53;;;23.80;47.80;;;;;;6157354;28;80557;-59
2023/12/14 05:21:37;;;;;;;13.95;7.75;;;23.80;47.70;;;;;;6157240;28;80827;-60
2023/12/14 05:24:38;;;;;;;15.20;7.03;;;23.80;47.80;;;;;;6156565;28;80872;-59
2023/12/14 05:27:38;;;;;;;20.90;7.80;;;23.80;48.10;;;;;;6162423;28;80666;-60
2023/12/14 05:30:39;;;;;;;16.40;7.07;;;23.80;47.90;;;;;;6156596;28;80534;-58
2023/12/14 05:33:39;;;;;;;9.43;6.72;;;23.80;48.00;;;;;;6154121;28;82602;-59
2023/12/14 05:36:40;;;;;;;10.82;7.28;;;23.80;47.60;;;;;;6147499;28;80634;-59
2023/12/14 05:39:40;;;;;;;14.80;6.80;;;23.80;47.60;;;;;;6149025;28;80575;-59
2023/12/14 05:42:41;;;;;;;9.43;6.85;;;23.80;47.60;;;;;;6147464;28;80611;-59
2023/12/14 05:45:41;;;;;;;11.77;6.82;;;23.80;47.30;;;;;;6149939;28;80468;-59
2023/12/14 05:48:42;;;;;;;10.88;7.03;;;23.80;47.40;;;;;;6165197;28;81283;-60
2023/12/14 05:51:42;;;;;;;13.02;7.63;;;23.80;47.30;;;;;;6150361;28;80276;-57
2023/12/14 05:54:43;;;;;;;16.58;7.28;;;23.80;47.70;;;;;;6172376;28;81315;-56
2023/12/14 05:57:43;;;;;;;12.57;8.00;;;23.70;47.70;;;;;;6166999;28;81879;-60
2023/12/14 06:00:44;;;;;;;12.30;7.43;;;23.70;47.40;;;;;;6170866;28;80672;-68
2023/12/14 06:03:44;;;;;;;45.65;9.38;;;23.70;47.30;;;;;;6159670;28;80796;-67
2023/12/14 06:06:45;;;;;;;21.20;8.10;;;23.70;47.10;;;;;;6171015;28;81710;-65
2023/12/14 06:09:45;;;;;;;41.25;8.95;;;23.70;47.20;;;;;;6179616;28;80845;-70
2023/12/14 06:12:45;;;;;;;22.92;8.65;;;23.70;47.00;;;;;;6158010;28;81189;-66
2023/12/14 06:15:46;;;;;;;38.70;7.88;;;23.70;47.00;;;;;;6163979;28;80710;-67
2023/12/14 06:18:47;;;;;;;32.95;8.45;;;23.70;47.00;;;;;;6161675;28;82200;-59
2023/12/14 06:21:47;;;;;;;21.38;8.23;;;23.70;47.00;;;;;;6177680;28;80384;-60
2023/12/14 06:24:48;;;;;;;18.77;7.40;;;23.70;47.10;;;;;;6160257;28;81846;-59
2023/12/14 06:27:49;;;;;;;16.25;7.32;;;23.70;46.80;;;;;;6167791;28;82999;-61
2023/12/14 06:30:50;;;;;;;14.70;8.25;;;23.70;46.60;;;;;;6152678;28;81229;-60
2023/12/14 06:33:50;;;;;;;24.67;8.18;;;23.70;46.70;;;;;;6159782;28;80745;-59
2023/12/14 06:36:51;;;;;;;24.73;8.48;;;23.70;46.50;;;;;;6156272;28;84099;-60
2023/12/14 06:39:51;;;;;;;17.88;8.13;;;23.70;46.60;;;;;;6163685;28;81623;-59
2023/12/14 06:42:52;;;;;;;15.40;7.65;;;23.60;46.20;;;;;;6162408;28;80540;-63
2023/12/14 06:45:52;;;;;;;13.05;7.38;;;23.60;46.50;;;;;;6170213;28;80911;-64
2023/12/14 06:48:53;;;;;;;15.85;7.88;;;23.60;46.20;;;;;;6175867;28;84592;-64
2023/12/14 06:51:54;;;;;;;18.17;7.65;;;23.60;46.00;;;;;;6171455;28;80865;-65
2023/12/14 06:54:54;;;;;;;15.85;7.90;;;23.50;45.90;;;;;;6173058;28;81445;-62
2023/12/14 06:57:55;;;;;;;15.63;7.75;;;23.50;45.70;;;;;;6168380;28;80622;-66
2023/12/14 07:00:55;;;;;;;15.23;8.27;;;23.50;45.90;;;;;;6162777;28;80817;-68
2023/12/14 07:03:56;;;;;;;15.02;8.38;;;23.50;45.50;;;;;;6153592;28;81696;-67
2023/12/14 07:06:56;;;;;;;13.43;8.77;;;23.50;45.30;;;;;;6165069;28;80146;-68
2023/12/14 07:09:57;;;;;;;12.68;8.60;;;23.40;45.10;;;;;;6176567;28;81022;-66
2023/12/14 07:12:58;;;;;;;16.70;8.63;;;23.40;45.10;;;;;;6160693;28;80636;-67
2023/12/14 07:15:59;;;;;;;13.80;8.23;;;23.40;45.00;;;;;;6150426;28;83127;-65
2023/12/14 07:19:00;;;;;;;14.45;9.27;;;23.40;44.90;;;;;;6150316;28;82838;-65
2023/12/14 07:22:00;;;;;;;12.38;8.82;;;23.30;44.80;;;;;;6168185;28;80728;-65
2023/12/14 07:25:01;;;;;;;14.73;8.88;;;23.30;44.80;;;;;;6176341;28;81023;-66
2023/12/14 07:28:02;;;;;;;16.95;9.25;;;23.30;44.50;;;;;;6161764;28;80579;-65
2023/12/14 07:31:02;;;;;;;12.63;8.70;;;23.30;44.60;;;;;;6151855;28;80486;-65
2023/12/14 07:34:03;;;;;;;14.57;9.00;;;23.30;44.50;;;;;;6175544;28;81504;-66
2023/12/14 07:37:03;;;;;;;15.57;9.95;;;23.30;44.40;;;;;;6166127;28;82002;-65
2023/12/14 07:40:04;;;;;;;15.10;8.98;;;23.30;44.30;;;;;;6176600;28;81462;-65
2023/12/14 07:43:05;;;;;;;12.63;8.75;;;23.30;44.30;;;;;;6176738;28;82055;-65
2023/12/14 07:46:05;;;;;;;13.13;8.48;;;23.30;44.20;;;;;;6175868;28;80978;-65
2023/12/14 07:49:06;;;;;;;15.85;10.05;;;23.30;44.20;;;;;;6175555;28;80539;-65
2023/12/14 07:52:06;;;;;;;14.18;9.77;;;23.20;44.10;;;;;;6173308;28;82671;-67
2023/12/14 07:55:07;;;;;;;15.63;9.30;;;23.20;44.00;;;;;;6162455;28;83244;-67
2023/12/14 07:58:07;;;;;;;13.88;9.25;;;23.20;44.00;;;;;;6154236;28;80539;-66
2023/12/14 08:01:08;;;;;;;14.77;8.88;;;23.20;43.90;;;;;;6152096;28;80444;-67
2023/12/14 08:04:11;;;;;;;14.75;9.90;;;23.20;43.90;;;;;;6154618;28;80448;-68
2023/12/14 08:07:11;;;;;;;15.45;10.70;;;23.20;43.90;;;;;;6174149;28;80488;-66
2023/12/14 08:10:12;;;;;;;14.95;9.98;;;23.20;43.80;;;;;;6171753;28;83378;-64
2023/12/14 08:13:12;;;;;;;14.73;9.50;;;23.20;43.70;;;;;;6173789;28;84195;-63
2023/12/14 08:16:13;;;;;;;14.00;9.98;;;23.10;43.70;;;;;;6174417;28;82812;-64
2023/12/14 08:19:13;;;;;;;15.48;10.00;;;23.20;43.70;;;;;;6168890;28;83356;-64
2023/12/14 08:22:15;;;;;;;14.00;9.75;;;23.10;43.60;;;;;;6171811;28;83320;-64
2023/12/14 08:25:16;;;;;;;15.77;10.73;;;23.10;44.20;;;;;;6176088;28;83531;-64
2023/12/14 08:28:16;;;;;;;16.33;10.25;;;23.10;43.60;;;;;;6171911;28;84211;-64
2023/12/14 08:31:17;;;;;;;14.77;9.90;;;23.20;43.70;;;;;;6170794;28;85274;-63
2023/12/14 08:34:17;;;;;;;16.27;10.10;;;23.20;43.70;;;;;;6175127;28;83186;-64
2023/12/14 08:37:18;;;;;;;17.50;9.73;;;23.20;43.60;;;;;;6153239;28;85023;-60
2023/12/14 08:40:18;;;;;;;15.82;9.90;;;23.20;43.90;;;;;;6147636;28;83685;-60
2023/12/14 08:43:19;;;;;;;13.73;9.85;;;23.30;43.90;;;;;;6144799;28;84079;-62
2023/12/14 08:46:19;;;;;;;12.18;8.88;;;23.30;43.80;;;;;;6170241;28;81067;-66
2023/12/14 08:49:20;;;;;;;14.38;9.80;;;23.30;43.90;;;;;;6166932;28;80951;-68
2023/12/14 08:52:20;;;;;;;13.32;9.98;;;23.30;44.20;;;;;;6165382;28;81916;-71
2023/12/14 08:55:21;;;;;;;14.38;9.65;;;23.30;43.80;;;;;;6166086;28;83172;-71
2023/12/14 08:58:22;;;;;;;12.55;9.15;;;23.40;44.00;;;;;;6170669;28;83102;-68
2023/12/14 09:01:22;;;;;;;15.15;9.48;;;23.40;44.30;;;;;;6158179;28;80314;-69
2023/12/14 09:04:23;;;;;;;17.67;9.48;;;23.50;44.30;;;;;;6162159;28;80381;-73
2023/12/14 09:07:23;;;;;;;14.82;9.63;;;23.50;44.40;;;;;;6177437;28;80699;-72
2023/12/14 09:10:24;;;;;;;17.00;9.82;;;23.50;44.50;;;;;;6159309;28;80678;-71
2023/12/14 09:13:24;;;;;;;17.52;9.88;;;23.60;44.80;;;;;;6175334;28;81389;-66
2023/12/14 09:16:25;;;;;;;17.30;9.75;;;23.60;44.60;;;;;;6163452;28;80364;-65
2023/12/14 09:19:26;;;;;;;16.23;10.38;;;23.60;44.80;;;;;;6159244;28;80427;-68
2023/12/14 09:22:26;;;;;;;14.20;9.60;;;23.60;44.70;;;;;;6163145;28;83193;-59
2023/12/14 09:25:27;;;;;;;17.80;10.38;;;23.60;44.60;;;;;;6168774;28;82821;-60
2023/12/14 09:28:28;;;;;;;14.45;9.82;;;23.60;44.70;;;;;;6172934;28;83543;-60
2023/12/14 09:31:28;;;;;;;14.85;10.43;;;23.60;44.60;;;;;;6180160;28;83221;-58
2023/12/14 09:34:29;;;;;;;15.75;9.98;;;23.60;44.70;;;;;;6174955;28;83251;-61
2023/12/14 09:37:29;;;;;;;15.10;9.85;;;23.60;44.80;;;;;;6165698;28;82924;-61
2023/12/14 09:40:30;;;;;;;18.77;10.00;;;23.60;44.60;;;;;;6178059;28;83688;-60
2023/12/14 09:43:30;;;;;;;20.83;9.82;;;23.60;44.60;;;;;;6178221;28;84052;-73
2023/12/14 09:46:31;;;;;;;13.43;8.63;;;23.60;44.80;;;;;;6181110;28;83182;-75
2023/12/14 09:49:31;;;;;;;15.55;9.70;;;23.70;44.90;;;;;;6179762;28;80271;-73
2023/12/14 09:52:33;;;;;;;13.73;9.45;;;23.70;44.80;;;;;;6180489;28;80652;-68
2023/12/14 09:55:33;;;;;;;13.50;9.23;;;23.70;44.90;;;;;;6175160;28;80839;-65
2023/12/14 09:58:34;;;;;;;13.30;9.30;;;23.70;44.60;;;;;;6171731;28;81696;-68
2023/12/14 10:01:35;;;;;;;13.85;8.93;;;23.70;44.70;;;;;;6174327;28;83088;-64
2023/12/14 10:04:35;;;;;;;15.70;9.88;;;23.70;44.60;;;;;;6174945;28;81267;-62
2023/12/14 10:07:36;;;;;;;16.65;9.40;;;23.70;44.70;;;;;;6170093;28;81876;-59
2023/12/14 10:10:36;;;;;;;14.75;9.52;;;23.70;44.70;;;;;;6175351;28;81003;-61
2023/12/14 10:13:37;;;;;;;13.50;8.88;;;23.70;44.70;;;;;;6178361;28;83521;-60
2023/12/14 10:16:37;;;;;;;16.45;9.60;;;23.70;44.60;;;;;;6177857;28;80776;-61
2023/12/14 10:19:38;;;;;;;13.18;9.32;;;23.70;44.60;;;;;;6177590;28;82995;-59
2023/12/14 10:22:38;;;;;;;15.32;7.90;;;23.70;44.70;;;;;;6176239;28;80665;-59
2023/12/14 10:25:39;;;;;;;12.63;8.20;;;23.70;45.00;;;;;;6161403;28;80864;-60
2023/12/14 10:28:40;;;;;;;13.70;8.85;;;23.70;46.80;;;;;;6162149;28;80404;-61
2023/12/14 10:31:40;;;;;;;13.38;8.80;;;23.70;46.30;;;;;;6159427;28;80755;-61
2023/12/14 10:34:41;;;;;;;16.35;9.07;;;23.70;48.20;;;;;;6167690;28;80737;-60
2023/12/14 10:37:42;;;;;;;13.75;8.98;;;23.70;49.30;;;;;;6152331;28;81169;-64
2023/12/14 10:40:43;;;;;;;14.45;9.57;;;23.70;50.00;;;;;;6155681;28;81045;-64
2023/12/14 10:43:44;;;;;;;13.95;8.75;;;23.60;52.30;;;;;;6163703;28;81179;-62
2023/12/14 10:46:44;;;;;;;17.50;10.50;;;23.60;51.80;;;;;;6173230;28;79972;-63
2023/12/14 10:49:45;;;;;;;14.30;9.02;;;23.60;50.20;;;;;;6174974;28;83194;-64
2023/12/14 10:52:45;;;;;;;11.75;8.60;;;23.60;50.40;;;;;;6174288;28;81744;-62
2023/12/14 10:55:46;;;;;;;14.60;8.57;;;23.50;50.90;;;;;;6159765;28;80553;-62
2023/12/14 10:58:47;;;;;;;14.75;9.60;;;23.50;50.90;;;;;;6160482;28;82086;-61
2023/12/14 11:01:48;;;;;;;15.52;9.30;;;23.50;51.40;;;;;;6162126;28;80652;-60
2023/12/14 11:04:48;;;;;;;15.10;10.65;;;23.50;52.20;;;;;;6159651;28;80809;-63
2023/12/14 11:07:49;;;;;;;20.73;9.02;;;23.50;51.60;;;;;;6169311;28;84313;-65
2023/12/14 11:10:49;;;;;;;25.02;9.32;;;23.50;51.90;;;;;;6179195;28;83014;-65
2023/12/14 11:13:50;;;;;;;26.60;9.57;;;23.50;52.10;;;;;;6177920;28;80990;-64
2023/12/14 11:16:50;;;;;;;20.05;9.15;;;23.50;52.20;;;;;;6177248;28;80909;-62
2023/12/14 11:19:53;;;;;;;25.33;10.63;;;23.50;52.30;;;;;;6176920;28;80842;-62
2023/12/14 11:22:54;;;;;;;16.00;8.77;;;23.50;52.90;;;;;;6168402;28;84622;-66
2023/12/14 11:25:54;;;;;;;19.58;8.88;;;23.40;53.00;;;;;;6169528;28;83164;-67
2023/12/14 11:28:55;;;;;;;13.85;9.13;;;23.50;53.30;;;;;;6166476;28;81094;-66
2023/12/14 11:31:55;;;;;;;12.18;8.65;;;23.40;53.40;;;;;;6168687;28;81404;-66
2023/12/14 11:34:56;;;;;;;12.25;8.38;;;23.40;53.90;;;;;;6159689;28;80935;-68
2023/12/14 11:37:59;;;;;;;10.95;8.35;;;23.40;53.50;;;;;;6165254;28;81388;-65
2023/12/14 11:40:59;;;;;;;12.18;8.15;;;23.40;53.60;;;;;;6177475;28;80979;-64
2023/12/14 11:44:00;;;;;;;12.18;7.95;;;23.40;53.20;;;;;;6165442;28;81293;-63
2023/12/14 11:47:00;;;;;;;11.77;7.70;;;23.40;53.60;;;;;;6166564;28;80942;-66
2023/12/14 11:50:01;;;;;;;13.88;8.32;;;23.40;54.00;;;;;;6168067;28;81627;-69
2023/12/14 11:53:03;;;;;;;11.95;7.60;;;23.40;54.00;;;;;;6169880;28;81415;-67
2023/12/14 11:56:03;;;;;;;13.02;7.82;;;23.30;53.30;;;;;;6168398;28;80454;-69
2023/12/14 11:59:04;;;;;;;12.20;7.95;;;23.30;53.40;;;;;;6166171;28;81117;-66
2023/12/14 12:02:04;;;;;;;11.30;7.90;;;23.30;53.60;;;;;;6164643;28;82683;-65
2023/12/14 12:05:05;;;;;;;12.48;7.72;;;23.30;53.70;;;;;;6150952;28;80881;-61
2023/12/14 12:08:06;;;;;;;13.82;7.82;;;23.30;53.60;;;;;;6178271;28;81854;-63
2023/12/14 12:11:06;;;;;;;13.13;8.32;;;23.30;53.70;;;;;;6171461;28;80505;-64
2023/12/14 12:14:07;;;;;;;10.23;7.35;;;23.30;54.10;;;;;;6160876;28;82701;-63
2023/12/14 12:17:08;;;;;;;15.35;8.13;;;23.30;54.30;;;;;;6183966;28;83475;-63
2023/12/14 12:20:08;;;;;;;18.10;8.35;;;23.30;54.20;;;;;;6153857;28;82347;-62
2023/12/14 12:23:09;;;;;;;10.05;7.10;;;23.30;54.60;;;;;;6181363;28;81638;-63
2023/12/14 12:26:09;;;;;;;12.32;8.65;;;23.30;55.10;;;;;;6163190;28;80447;-63
2023/12/14 12:29:10;;;;;;;11.77;8.05;;;23.30;58.40;;;;;;6163875;28;80331;-62
2023/12/14 12:32:11;;;;;;;12.27;7.95;;;23.30;57.40;;;;;;6169022;28;80801;-62
2023/12/14 12:35:12;;;;;;;11.25;7.72;;;23.30;60.00;;;;;;6160615;28;81523;-64
2023/12/14 12:38:12;;;;;;;11.23;7.97;;;23.30;59.50;;;;;;6153066;28;80597;-62
2023/12/14 12:41:13;;;;;;;11.82;7.90;;;23.30;59.70;;;;;;6153682;28;80821;-60
2023/12/14 12:44:13;;;;;;;10.95;7.53;;;23.30;58.40;;;;;;6153913;28;80676;-70
2023/12/14 12:47:14;;;;;;;11.23;7.95;;;23.30;58.00;;;;;;6161983;28;80673;-60
2023/12/14 12:50:14;;;;;;;11.57;7.82;;;23.30;57.70;;;;;;6164308;28;81417;-61
2023/12/14 12:53:15;;;;;;;14.43;9.63;;;23.30;57.60;;;;;;6173949;28;80429;-62
2023/12/14 12:56:16;;;;;;;16.92;11.85;;;23.30;55.40;;;;;;6168727;28;81014;-62
2023/12/14 12:59:17;;;;;;;17.65;12.85;;;23.10;53.30;;;;;;6164512;28;83586;-68
2023/12/14 13:02:17;;;;;;;22.30;13.60;;;22.70;49.30;;;;;;6160576;28;85869;-68
2023/12/14 13:05:18;;;;;;;17.58;12.23;;;22.40;48.30;;;;;;6162009;28;83431;-62
2023/12/14 13:08:18;;;;;;;19.98;13.00;;;22.30;48.00;;;;;;6169364;28;83069;-62
2023/12/14 13:11:19;;;;;;;18.17;12.48;;;22.20;48.60;;;;;;6169424;28;83131;-63
2023/12/14 13:14:19;;;;;;;17.65;12.05;;;22.20;48.90;;;;;;6167621;28;84761;-62
2023/12/14 13:17:20;;;;;;;18.10;12.23;;;22.20;49.10;;;;;;6167448;28;83079;-62
2023/12/14 13:20:20;;;;;;;20.40;13.32;;;22.20;48.80;;;;;;6172478;28;83219;-63
2023/12/14 13:23:21;;;;;;;22.95;14.38;;;22.20;48.30;;;;;;6170511;28;85730;-67
2023/12/14 13:26:21;;;;;;;19.70;12.50;;;22.10;47.60;;;;;;6177000;28;83045;-66
2023/12/14 13:29:22;;;;;;;17.92;12.35;;;22.10;47.60;;;;;;6174709;28;83539;-65
2023/12/14 13:32:22;;;;;;;17.10;11.88;;;22.00;48.80;;;;;;6171568;28;86128;-66
2023/12/14 13:35:24;;;;;;;17.70;12.82;;;22.00;47.80;;;;;;6155222;28;84706;-63
2023/12/14 13:38:25;;;;;;;18.48;12.35;;;22.00;49.70;;;;;;6159137;28;83166;-64
2023/12/14 13:41:25;;;;;;;19.35;13.07;;;22.00;48.70;;;;;;6175463;28;83304;-66
2023/12/14 13:44:26;;;;;;;17.60;12.25;;;21.90;47.80;;;;;;6167228;28;84206;-62
2023/12/14 13:47:26;;;;;;;15.70;12.05;;;21.90;47.30;;;;;;6164258;28;84824;-62
2023/12/14 13:50:27;;;;;;;18.58;12.10;;;21.90;47.60;;;;;;6168907;28;83196;-63
2023/12/14 13:53:28;;;;;;;15.95;11.30;;;21.80;48.40;;;;;;6170344;28;84692;-59
2023/12/14 13:56:28;;;;;;;16.02;11.00;;;21.80;49.80;;;;;;6166228;28;83107;-60
2023/12/14 13:59:29;;;;;;;17.73;11.73;;;21.80;49.70;;;;;;6162055;28;83380;-66
2023/12/14 14:02:29;;;;;;;16.90;11.68;;;21.80;50.90;;;;;;6160899;28;83625;-64
2023/12/14 14:05:30;;;;;;;16.58;11.52;;;21.80;51.50;;;;;;6163269;28;83594;-63
2023/12/14 14:08:33;;;;;;;15.43;10.63;;;21.80;51.70;;;;;;6172840;28;83514;-62
2023/12/14 14:11:35;;;;;;;20.05;11.10;;;21.80;52.20;;;;;;6175509;28;84338;-63
2023/12/14 14:14:35;;;;;;;18.85;11.50;;;21.80;52.20;;;;;;6172832;28;83599;-63
2023/12/14 14:17:36;;;;;;;16.63;11.63;;;21.80;52.60;;;;;;6162209;28;83066;-64
2023/12/14 14:20:36;;;;;;;17.65;11.38;;;21.80;52.80;;;;;;6147347;28;83170;-64
2023/12/14 14:23:37;;;;;;;17.45;12.27;;;21.80;52.60;;;;;;6147148;28;83426;-63
2023/12/14 14:26:37;;;;;;;18.40;10.98;;;21.80;53.20;;;;;;6147878;28;84806;-65
2023/12/14 14:29:38;;;;;;;17.58;11.70;;;21.80;53.20;;;;;;6148777;28;86412;-63
2023/12/14 14:32:38;;;;;;;17.55;11.10;;;21.80;53.40;;;;;;6155597;28;83436;-66
2023/12/14 14:35:39;;;;;;;16.60;12.10;;;21.80;53.20;;;;;;6161398;28;83133;-64
2023/12/14 14:38:39;;;;;;;20.08;12.88;;;21.80;53.30;;;;;;6150357;28;83274;-65
2023/12/14 14:41:40;;;;;;;17.05;12.02;;;21.70;53.60;;;;;;6152955;28;83756;-65
2023/12/14 14:44:40;;;;;;;19.88;13.85;;;21.70;53.30;;;;;;6150688;28;83217;-64
2023/12/14 14:47:43;;;;;;;19.60;12.60;;;21.70;53.60;;;;;;6155326;28;83863;-66
2023/12/14 14:50:44;;;;;;;20.10;13.07;;;21.70;53.20;;;;;;6157163;28;84219;-65
2023/12/14 14:53:47;;;;;;;18.90;13.30;;;21.70;53.40;;;;;;6151233;28;83485;-60
2023/12/14 14:56:47;;;;;;;20.92;13.65;;;21.70;53.50;;;;;;6162397;28;82970;-59
2023/12/14 14:59:48;;;;;;;19.77;13.68;;;21.70;53.40;;;;;;6150108;28;84638;-59
2023/12/14 15:02:48;;;;;;;21.40;14.10;;;21.70;53.20;;;;;;6152834;28;83861;-58
2023/12/14 15:05:49;;;;;;;22.98;14.10;;;21.70;52.80;;;;;;6149433;28;83934;-58
2023/12/14 15:08:49;;;;;;;19.50;13.52;;;21.80;52.20;;;;;;6149714;28;83159;-58
2023/12/14 15:11:50;;;;;;;21.95;13.68;;;21.80;52.00;;;;;;6163723;28;83763;-59
2023/12/14 15:14:50;;;;;;;26.20;14.43;;;21.80;51.80;;;;;;6164968;28;88367;-60
2023/12/14 15:17:51;;;;;;;23.25;14.55;;;21.80;51.70;;;;;;6155327;28;85024;-61
2023/12/14 15:20:52;;;;;;;21.77;14.23;;;21.80;51.20;;;;;;6148117;28;86272;-61
2023/12/14 15:23:53;;;;;;;21.90;14.35;;;21.90;51.20;;;;;;6160108;28;89464;-59